VIP Ground Handling & Aviation Services

 

 
Airport

SKIATHOS (JSI)

Ground Handling Services – JSI/LGSK

VIP Ground Handling

State Ground Handling

Military Ground Handling

Slot & PPR Coordination

Fuel Arrangements

Crew Accommodation Arrangements

Crew Transportation

Customs & Immigration Assistance

Executive Terminal Services

Crew Lounge

Flight Planning, Weather Briefing and NOTAMs

Catering Arrangements

Security Services

Aircraft Maintenance

Airport Customs & Immigration

Concierge Services

VIP Meet & Greet

Helicopter Transfers

Chauffeur Services

Aircraft Charter

Yacht Charter

Hire & Rental

Entertainment & Hospitality

Health & Beauty

Delivery Services

Conference & Meeting rooms

Skiathos Airport 'Alexandros Papadiamantis', Skiathos 370 02

+30 210 35 33 331 (24/7)

+30 694 6200 300 (24/7)

greece@alphajetservices.com

Skiathos Airport
Airport Type
•Civil
Operating Hours
•Check NOTAMS / Contact Us
Fuel Available
•JET A1
Fire Category
•7
Approaches
•NDB
Available data for LGSK from the past 2 hours
SKIATHOS ISLAND
Metar
LGSK 260950Z 36008KT 9999 FEW020 30/21 Q1016

09:50 UTC

Wind: 360° 8kt

Visibility: 9999 m

Sky: FEW 2000 ft

Temp: 30 deg C / 86 deg F

Dewpoint: 21 deg C / 69.8 deg F

Pressure: 1016 hPa

TAF
TAF LGSK 260800Z 2609/2618 01015KT 9999 FEW020